Nearby METAR Reports

 

KMTN - Baltimore/Martin, Maryland, USA
Distance from station: SSE 8mi, 13km
Updated: Wed, 04-May-2016 4:45pm EDT
Overcast
Overcast
 Wind from ENE
Wind: ENE 3 mph , 6 km/h
Temperature: 55°F , 13°C
Dew Point: 54°F , 12°C
Humidity: 94%
Barometer: 29.68 inHg , 1005.1 hPa
Clouds: Overcast
Visibility: 7 miles , 11 km
Cloud details: Overcast 1100 ft
2016/05/04 20:45 KMTN 042045Z 06003KT 7SM OVC011 13/12 A2968
KDMH - Baltimore/Dwntwn, Maryland, USA
Distance from station: SW 12mi, 19km
Updated: Wed, 04-May-2016 4:54pm EDT

 
Temperature: 55°F , 13°C
Dew Point: 50°F , 10°C
Humidity: 82%
Barometer: 29.66 inHg , 1004.4 hPa
2016/05/04 20:54 KDMH 042054Z AUTO 13/10 A2966 RMK AO1 SLP045 T01330100 58007
 
KBWI - Balto/Wash Intl, Maryland, USA
Distance from station: SSW 20mi, 33km
Updated: Wed, 04-May-2016 4:54pm EDT
Overcast
Overcast
 Wind from E
Wind: E 7 mph , 11 km/h
Temperature: 55°F , 13°C
Dew Point: 52°F , 11°C
Humidity: 88%
Barometer: 29.65 inHg , 1004.1 hPa
Clouds: Overcast
Visibility: 9 miles , 14 km
Cloud details: Mostly cloudy 900 ft
Overcast 1200 ft
2016/05/04 20:54 KBWI 042054Z 08006KT 9SM BKN009 OVC012 13/11 A2965 RMK AO2 DZE17B39E52 SLP041 VIRGA S P0000 60000 T01280106 58010
KDMW - Carroll Cnty, Maryland, USA
Distance from station: WNW 30mi, 48km
Updated: Wed, 04-May-2016 4:50pm EDT
Overcast
Overcast
 Wind from E
Wind: E 5 mph , 7 km/h
Temperature: 55°F , 13°C
Dew Point: 36°F , 2°C
Humidity: 47%
Barometer: 29.65 inHg , 1004.1 hPa
Clouds: Overcast
Visibility: 10 miles , 16 km
Cloud details: Overcast 1200 ft
2016/05/04 20:50 KDMW 042050Z AUTO 09004KT 10SM OVC012 13/02 A2965 RMK AO2
 
KNAK - Annapolis/Naval, Maryland, USA
Distance from station: S 30mi, 48km
Updated: Wed, 04-May-2016 4:54pm EDT
Overcast
Overcast
 Wind from NE
Wind: NE 8 mph , 13 km/h
Temperature: 55°F , 13°C
Dew Point: 52°F , 11°C
Humidity: 88%
Barometer: 29.66 inHg , 1004.4 hPa
Clouds: Overcast
Visibility: 10 miles , 16 km
Cloud details: Overcast 1600 ft
2016/05/04 20:54 KNAK 042054Z AUTO 05007KT 10SM OVC016 13/11 A2966 RMK AO2 SLP045 T01330111 56012 $
KW29 - Stevensville, Maryland, USA
Distance from station: SSE 31mi, 50km
Updated: Tue, 26-Apr-2016 2:56pm EDT
NOT Current

 
Temperature: 79°F , 26°C
Dew Point: 50°F , 10°C
Humidity: 37%
Barometer: 29.68 inHg , 1005.1 hPa
Visibility: 10 miles , 16 km
2016/04/26 18:56 KW29 261856Z 10SM 26/10 A2968 RMK AO1
 
KCGS - College Park, Maryland, USA
Distance from station: SW 38mi, 61km
Updated: Wed, 04-May-2016 4:50pm EDT
Overcast
Overcast
 Wind from ENE
Wind: ENE 3 mph , 6 km/h
Temperature: 55°F , 13°C
Dew Point: 50°F , 10°C
Humidity: 82%
Barometer: 29.65 inHg , 1004.1 hPa
Clouds: Overcast
Visibility: 10 miles , 16 km
Cloud details: Overcast 1200 ft
2016/05/04 20:50 KCGS 042050Z AUTO 06003KT 10SM OVC012 13/10 A2965 RMK AO1
KGAI - Gaithersburg, Maryland, USA
Distance from station: WSW 40mi, 65km
Updated: Wed, 04-May-2016 4:55pm EDT
Overcast
Overcast
 Wind from E
Wind: E 5 mph , 7 km/h
Temperature: 55°F , 13°C
Dew Point: 48°F , 9°C
Humidity: 77%
Barometer: 29.69 inHg , 1005.4 hPa
Clouds: Overcast
Visibility: 10 miles , 16 km
Cloud details: Overcast 1400 ft
2016/05/04 20:55 KGAI 042055Z AUTO 09004KT 10SM OVC014 13/09 A2969 RMK AO1 57010
 
KTHV - York, Pennsylvania, USA
Distance from station: NNW 40mi, 65km
Updated: Wed, 04-May-2016 4:53pm EDT
Overcast
Overcast
 Wind from E
Wind: E 9 mph , 15 km/h
Temperature: 54°F , 12°C
Dew Point: 50°F , 10°C
Humidity: 88%
Barometer: 29.66 inHg , 1004.4 hPa
Clouds: Overcast
Visibility: 8 miles , 13 km
Cloud details: Overcast 1200 ft
2016/05/04 20:53 KTHV 042053Z AUTO 08008KT 8SM OVC012 12/10 A2966 RMK AO2 SLP045 T01220100 56012
KFDK - Frederick, Maryland, USA
Distance from station: W 47mi, 75km
Updated: Wed, 04-May-2016 4:55pm EDT
Overcast
Overcast
 Wind from calm
Wind: Calm
Temperature: 57°F , 14°C
Dew Point: 55°F , 13°C
Humidity: 94%
Barometer: 29.68 inHg , 1005.1 hPa
Clouds: Overcast
Visibility: 10 miles , 16 km
Cloud details: Overcast 1400 ft
2016/05/04 20:55 KFDK 042055Z 00000KT 10SM OVC014 14/13 A2968
 
KESN - Easton/Newnam, Maryland, USA
Distance from station: SSE 48mi, 78km
Updated: Wed, 04-May-2016 4:50pm EDT
Haze, Overcast
Haze, Overcast
 Wind from NE
Wind: NE 8 mph , 13 km/h
Barometer: 29.69 inHg , 1005.4 hPa
Summary: Haze
Clouds: Overcast
Visibility: 5 miles , 8 km
Cloud details: Overcast 1100 ft
2016/05/04 20:50 KESN 042050Z 04007KT 5SM HZ OVC011 A2969
KDCA - Washington/Natl, Washington D.c., USA
Distance from station: SW 49mi, 79km
Updated: Wed, 04-May-2016 4:52pm EDT
Overcast
Overcast
 Wind from E
Wind: E 9 mph , 15 km/h
Temperature: 61°F , 16°C
Dew Point: 54°F , 12°C
Humidity: 77%
Barometer: 29.65 inHg , 1004.1 hPa
Clouds: Overcast
Visibility: 10 miles , 16 km
Cloud details: Overcast 2200 ft
2016/05/04 20:52 KDCA 042052Z 08008KT 10SM OVC022 16/12 A2965 RMK AO2 SLP039 T01560117 56013
 
KLNS - Lancaster, Pennsylvania, USA
Distance from station: N 49mi, 79km
Updated: Wed, 04-May-2016 4:53pm EDT
Overcast
Overcast
 Wind from E
Wind: E 8 mph , 13 km/h
Temperature: 54°F , 12°C
Dew Point: 48°F , 9°C
Humidity: 82%
Barometer: 29.67 inHg , 1004.7 hPa
Clouds: Overcast
Visibility: 10 miles , 16 km
Cloud details: Mostly cloudy 1600 ft
Overcast 2100 ft
2016/05/04 20:53 KLNS 042053Z 08007KT 10SM BKN016 OVC021 12/09 A2967 RMK AO2 SLP049 T01220094 56013
KILG - Wilmington, Delaware, USA
Distance from station: ENE 50mi, 81km
Updated: Wed, 04-May-2016 4:51pm EDT
Overcast
Overcast
 Wind from NE
Wind: NE 12 mph , 19 km/h
Temperature: 52°F , 11°C
Dew Point: 46°F , 8°C
Humidity: 82%
Barometer: 29.69 inHg , 1005.4 hPa
Clouds: Overcast
Visibility: 10 miles , 16 km
Cloud details: Overcast 1200 ft
2016/05/04 20:51 KILG 042051Z AUTO 05010KT 10SM OVC012 11/08 A2969 RMK AO2 SLP054 T01110083 58005 TSNO $